createdAt,value
2022-08-30T00:01:04.962Z,19.89
2022-08-30T00:03:37.636Z,20.02
2022-08-30T00:06:09.543Z,20.09
2022-08-30T00:08:36.735Z,20.05
2022-08-30T00:11:05.320Z,19.95
2022-08-30T00:13:32.118Z,19.85
2022-08-30T00:15:58.774Z,19.92
2022-08-30T00:18:26.691Z,19.90
2022-08-30T00:20:53.313Z,19.91
2022-08-30T00:23:20.436Z,19.90
2022-08-30T00:25:48.020Z,19.69
2022-08-30T00:28:15.295Z,19.72
2022-08-30T00:30:43.064Z,19.59
2022-08-30T00:33:10.967Z,19.50
2022-08-30T00:35:39.931Z,19.68
2022-08-30T00:38:08.089Z,19.79
2022-08-30T00:40:35.473Z,19.86
2022-08-30T00:43:14.158Z,19.82
2022-08-30T00:45:42.725Z,19.83
2022-08-30T00:48:09.625Z,19.82
2022-08-30T00:50:42.092Z,19.84
2022-08-30T00:53:13.586Z,19.78
2022-08-30T00:55:43.140Z,19.75
2022-08-30T00:58:19.916Z,19.72
2022-08-30T01:00:47.662Z,19.62
2022-08-30T01:03:14.513Z,19.62
2022-08-30T01:05:41.855Z,19.78
2022-08-30T01:08:08.809Z,19.80
2022-08-30T01:10:36.952Z,19.70
2022-08-30T01:13:04.573Z,19.69
2022-08-30T01:15:32.612Z,19.72
2022-08-30T01:18:01.191Z,19.79
2022-08-30T01:20:37.156Z,19.80
2022-08-30T01:23:13.457Z,19.70
2022-08-30T01:25:42.947Z,19.65
2022-08-30T01:28:16.022Z,19.60
2022-08-30T01:30:42.974Z,19.51
2022-08-30T01:33:10.841Z,19.50
2022-08-30T01:35:58.911Z,19.48
2022-08-30T01:38:33.816Z,19.49
2022-08-30T01:41:09.806Z,19.37
2022-08-30T01:43:36.814Z,19.22
2022-08-30T01:46:08.124Z,19.21
2022-08-30T01:48:34.936Z,19.19
2022-08-30T01:51:02.327Z,19.29
2022-08-30T01:53:29.341Z,19.21
2022-08-30T01:55:56.101Z,19.12
2022-08-30T01:58:23.316Z,19.04
2022-08-30T02:00:51.213Z,19.08
2022-08-30T02:03:19.412Z,19.08
2022-08-30T02:05:46.295Z,18.88
2022-08-30T02:08:13.167Z,18.90
2022-08-30T02:10:39.867Z,18.83
2022-08-30T02:13:06.668Z,19.01
2022-08-30T02:15:41.236Z,18.93
2022-08-30T02:18:10.830Z,18.85
2022-08-30T02:20:39.717Z,18.68
2022-08-30T02:23:06.612Z,18.67
2022-08-30T02:25:33.340Z,18.56
2022-08-30T02:28:00.044Z,18.54
2022-08-30T02:30:27.194Z,18.75
2022-08-30T02:32:53.885Z,18.75
2022-08-30T02:35:20.506Z,18.66
2022-08-30T02:37:47.165Z,18.48
2022-08-30T02:40:14.155Z,18.69
2022-08-30T02:42:41.745Z,18.69
2022-08-30T02:45:08.943Z,18.67
2022-08-30T02:47:36.036Z,18.71
2022-08-30T02:50:05.298Z,18.55
2022-08-30T02:52:32.186Z,18.60
2022-08-30T02:54:59.695Z,18.64
2022-08-30T02:57:26.428Z,18.57
2022-08-30T02:59:53.427Z,18.71
2022-08-30T03:02:22.142Z,18.55
2022-08-30T03:04:49.206Z,18.53
2022-08-30T03:07:16.192Z,18.45
2022-08-30T03:09:42.851Z,18.21
2022-08-30T03:12:10.208Z,18.38
2022-08-30T03:14:39.060Z,18.45
2022-08-30T03:17:13.010Z,18.62
2022-08-30T03:19:44.143Z,18.51
2022-08-30T03:22:11.784Z,18.51
2022-08-30T03:24:39.188Z,18.52
2022-08-30T03:27:07.164Z,18.33
2022-08-30T03:29:34.591Z,18.30
2022-08-30T03:32:01.296Z,18.35
2022-08-30T03:34:28.181Z,18.36
2022-08-30T03:36:55.873Z,18.31
2022-08-30T03:39:23.907Z,18.30
2022-08-30T03:41:52.018Z,18.33
2022-08-30T03:44:19.579Z,18.28
2022-08-30T03:46:46.810Z,18.22
2022-08-30T03:49:13.720Z,18.17
2022-08-30T03:51:40.424Z,18.12
2022-08-30T03:54:07.268Z,18.11
2022-08-30T03:56:33.911Z,18.01
2022-08-30T03:59:00.605Z,17.88
2022-08-30T04:01:27.384Z,17.87
2022-08-30T04:03:54.152Z,17.93
2022-08-30T04:06:21.031Z,18.04
2022-08-30T04:08:47.903Z,17.97
2022-08-30T04:11:17.404Z,17.78
2022-08-30T04:13:44.337Z,17.85
2022-08-30T04:16:11.035Z,17.84
2022-08-30T04:18:37.729Z,17.83
2022-08-30T04:21:04.825Z,17.65
2022-08-30T04:23:31.584Z,17.63
2022-08-30T04:25:58.399Z,17.71
2022-08-30T04:28:25.623Z,17.62
2022-08-30T04:30:52.791Z,17.57
2022-08-30T04:33:19.626Z,17.62
2022-08-30T04:35:49.418Z,17.69
2022-08-30T04:38:17.852Z,17.57
2022-08-30T04:40:49.138Z,17.55
2022-08-30T04:43:16.485Z,17.42
2022-08-30T04:45:43.802Z,17.35
2022-08-30T04:48:11.164Z,17.37
2022-08-30T04:50:38.009Z,17.43
2022-08-30T04:53:13.598Z,17.43
2022-08-30T04:55:43.289Z,17.43
2022-08-30T04:58:10.918Z,17.33
2022-08-30T05:00:37.793Z,17.40
2022-08-30T05:03:04.734Z,17.47
2022-08-30T05:05:40.437Z,17.65
2022-08-30T05:08:21.056Z,17.68
2022-08-30T05:10:53.360Z,17.69
2022-08-30T05:13:25.985Z,17.68
2022-08-30T05:16:04.770Z,17.65
2022-08-30T05:18:32.621Z,17.69
2022-08-30T05:21:04.848Z,17.52
2022-08-30T05:23:31.695Z,17.63
2022-08-30T05:25:58.364Z,17.75
2022-08-30T05:28:26.360Z,17.81
2022-08-30T05:30:53.180Z,17.69
2022-08-30T05:33:19.873Z,17.58
2022-08-30T05:35:46.573Z,17.58
2022-08-30T05:38:13.356Z,17.75
2022-08-30T05:40:41.758Z,17.86
2022-08-30T05:43:10.095Z,17.79
2022-08-30T05:45:38.035Z,17.85
2022-08-30T05:48:05.145Z,17.88
2022-08-30T05:50:31.822Z,17.90
2022-08-30T05:52:58.563Z,17.96
2022-08-30T05:55:25.193Z,17.97
2022-08-30T05:57:51.885Z,18.02
2022-08-30T06:00:19.049Z,18.11
2022-08-30T06:02:46.068Z,18.20
2022-08-30T06:05:14.422Z,18.28
2022-08-30T06:07:42.532Z,18.23
2022-08-30T06:10:09.470Z,18.29
2022-08-30T06:12:36.210Z,18.27
2022-08-30T06:15:03.262Z,18.22
2022-08-30T06:17:30.342Z,18.23
2022-08-30T06:19:57.121Z,18.19
2022-08-30T06:22:23.950Z,18.33
2022-08-30T06:24:58.318Z,18.12
2022-08-30T06:27:25.345Z,18.31
2022-08-30T06:29:53.245Z,18.38
2022-08-30T06:32:20.188Z,18.29
2022-08-30T06:34:48.243Z,18.37
2022-08-30T06:37:29.102Z,18.47
2022-08-30T06:39:58.003Z,18.54
2022-08-30T06:42:30.606Z,18.62
2022-08-30T06:44:58.520Z,18.61
2022-08-30T06:47:25.289Z,18.60
2022-08-30T06:49:52.170Z,18.49
2022-08-30T06:52:19.112Z,18.61
2022-08-30T06:54:45.924Z,18.54
2022-08-30T06:57:12.899Z,18.59
2022-08-30T06:59:40.343Z,18.63
2022-08-30T07:02:07.585Z,18.63
2022-08-30T07:04:34.848Z,18.62
2022-08-30T07:07:01.640Z,18.77
2022-08-30T07:09:28.573Z,18.87
2022-08-30T07:11:55.465Z,18.91
2022-08-30T07:14:22.853Z,18.77
2022-08-30T07:16:51.102Z,18.77
2022-08-30T07:19:20.967Z,18.80
2022-08-30T07:21:49.396Z,19.12
2022-08-30T07:24:16.536Z,19.15
2022-08-30T07:26:47.211Z,19.15
2022-08-30T07:29:14.155Z,19.24
2022-08-30T07:31:41.002Z,19.33
2022-08-30T07:34:09.011Z,19.42
2022-08-30T07:36:37.384Z,19.48
2022-08-30T07:39:06.061Z,19.49
2022-08-30T07:41:38.421Z,19.55
2022-08-30T07:44:06.843Z,19.65
2022-08-30T07:46:34.161Z,19.65
2022-08-30T07:49:01.865Z,19.77
2022-08-30T07:51:31.840Z,19.69
2022-08-30T07:53:58.623Z,19.75
2022-08-30T07:56:27.122Z,19.79
2022-08-30T07:58:53.918Z,19.86
2022-08-30T08:01:22.730Z,19.88
2022-08-30T08:03:50.437Z,19.92
2022-08-30T08:06:19.962Z,19.88
2022-08-30T08:08:46.853Z,20.00
2022-08-30T08:11:20.968Z,20.13
2022-08-30T08:13:52.981Z,20.13
2022-08-30T08:16:22.793Z,20.15
2022-08-30T08:18:49.582Z,20.16
2022-08-30T08:21:16.914Z,20.14
2022-08-30T08:23:44.144Z,20.17
2022-08-30T08:26:11.001Z,20.22
2022-08-30T08:28:37.650Z,20.34
2022-08-30T08:31:13.277Z,20.31
2022-08-30T08:33:40.045Z,20.38
2022-08-30T08:36:09.344Z,20.43
2022-08-30T08:38:36.990Z,20.45
2022-08-30T08:41:40.492Z,20.47
2022-08-30T08:44:34.275Z,20.53
2022-08-30T08:47:29.889Z,20.57
2022-08-30T08:50:02.998Z,20.72
2022-08-30T08:53:01.817Z,20.74
2022-08-30T08:55:29.787Z,20.81
2022-08-30T08:57:57.299Z,20.95
2022-08-30T09:00:24.313Z,20.91
2022-08-30T09:03:00.288Z,20.96
2022-08-30T09:05:31.542Z,20.92
2022-08-30T09:08:09.533Z,20.99
2022-08-30T09:10:50.328Z,20.93
2022-08-30T09:13:19.579Z,20.92
2022-08-30T09:15:54.767Z,20.95
2022-08-30T09:18:51.287Z,21.13
2022-08-30T09:21:24.576Z,21.18
2022-08-30T09:23:59.838Z,21.22
2022-08-30T09:26:36.864Z,21.18
2022-08-30T09:29:05.160Z,21.25
2022-08-30T09:31:46.317Z,21.13
2022-08-30T09:34:19.107Z,21.17
2022-08-30T09:36:49.628Z,21.24
2022-08-30T09:39:30.902Z,21.32
2022-08-30T09:42:21.144Z,21.41
2022-08-30T09:44:49.928Z,21.40
2022-08-30T09:47:24.231Z,21.39
2022-08-30T09:50:17.128Z,21.51
2022-08-30T09:53:10.446Z,21.74
2022-08-30T09:55:51.604Z,21.89
2022-08-30T09:58:38.005Z,22.12
2022-08-30T10:01:05.035Z,22.10
2022-08-30T10:03:52.318Z,22.09
2022-08-30T10:06:36.290Z,22.21
2022-08-30T10:09:41.729Z,22.09
2022-08-30T10:12:13.857Z,22.13
2022-08-30T10:14:51.325Z,22.19
2022-08-30T10:17:54.877Z,22.24
2022-08-30T10:20:30.283Z,22.33
2022-08-30T10:23:20.253Z,22.46
2022-08-30T10:25:51.924Z,22.46
2022-08-30T10:28:35.561Z,22.45
2022-08-30T10:31:11.339Z,22.59
2022-08-30T10:33:48.187Z,22.53
2022-08-30T10:36:16.784Z,22.59
2022-08-30T10:38:54.158Z,22.66
2022-08-30T10:41:41.168Z,22.77
2022-08-30T10:44:12.454Z,22.54
2022-08-30T10:46:39.108Z,22.59
2022-08-30T10:49:13.512Z,22.60
2022-08-30T10:51:47.720Z,22.64
2022-08-30T10:54:38.453Z,22.68
2022-08-30T10:57:05.177Z,22.74
2022-08-30T10:59:33.689Z,22.87
2022-08-30T11:02:31.665Z,22.99
2022-08-30T11:05:16.067Z,22.98
2022-08-30T11:08:22.160Z,23.11
2022-08-30T11:11:27.294Z,23.21
2022-08-30T11:13:57.217Z,23.22
2022-08-30T11:16:37.137Z,23.15
2022-08-30T11:19:24.126Z,23.12
2022-08-30T11:22:08.035Z,23.13
2022-08-30T11:25:13.368Z,23.12
2022-08-30T11:27:46.232Z,23.17
2022-08-30T11:30:26.645Z,23.30
2022-08-30T11:33:12.789Z,23.24
2022-08-30T11:35:49.758Z,23.10
2022-08-30T11:38:39.569Z,23.18
2022-08-30T11:41:32.279Z,23.23
2022-08-30T11:44:23.236Z,23.30
2022-08-30T11:46:53.243Z,23.16
2022-08-30T11:49:20.044Z,23.31
2022-08-30T11:52:26.608Z,23.47
2022-08-30T11:54:53.597Z,23.53
2022-08-30T11:57:45.555Z,23.54
2022-08-30T12:00:28.888Z,23.45
2022-08-30T12:03:01.707Z,23.47
2022-08-30T12:05:49.421Z,23.52
2022-08-30T12:08:21.172Z,23.54
2022-08-30T12:10:57.687Z,23.58
2022-08-30T12:13:52.056Z,23.56
2022-08-30T12:16:34.762Z,23.51
2022-08-30T12:19:20.137Z,23.58
2022-08-30T12:22:16.610Z,23.54
2022-08-30T12:24:48.540Z,23.65
2022-08-30T12:27:23.001Z,23.72
2022-08-30T12:29:55.677Z,23.68
2022-08-30T12:32:27.467Z,23.64
2022-08-30T12:34:58.569Z,23.87
2022-08-30T12:37:27.308Z,23.81
2022-08-30T12:40:07.992Z,23.76
2022-08-30T12:42:38.548Z,23.70
2022-08-30T12:45:13.307Z,23.75
2022-08-30T12:47:53.923Z,23.75
2022-08-30T12:50:28.189Z,23.82
2022-08-30T12:53:13.942Z,23.93
2022-08-30T12:55:59.279Z,23.85
2022-08-30T12:58:49.829Z,23.86
2022-08-30T13:01:29.234Z,24.00
2022-08-30T13:03:57.887Z,24.06
2022-08-30T13:06:38.279Z,23.88
2022-08-30T13:09:05.066Z,23.85
2022-08-30T13:11:31.668Z,23.80
2022-08-30T13:14:31.606Z,23.81
2022-08-30T13:17:20.352Z,23.91
2022-08-30T13:20:22.194Z,23.93
2022-08-30T13:23:23.689Z,24.07
2022-08-30T13:25:50.610Z,24.13
2022-08-30T13:28:17.538Z,24.17
2022-08-30T13:30:44.468Z,24.13
2022-08-30T13:33:11.593Z,24.13
2022-08-30T13:35:38.474Z,24.04
2022-08-30T13:38:05.961Z,24.01
2022-08-30T13:40:32.925Z,23.92
2022-08-30T13:43:01.120Z,23.92
2022-08-30T13:45:43.394Z,23.88
2022-08-30T13:48:12.130Z,24.00
2022-08-30T13:50:39.181Z,24.12
2022-08-30T13:53:06.200Z,24.10
2022-08-30T13:55:36.852Z,24.13
2022-08-30T13:58:03.936Z,24.10
2022-08-30T14:00:36.168Z,24.11
2022-08-30T14:03:04.572Z,24.07
2022-08-30T14:06:05.240Z,24.14
2022-08-30T14:08:48.778Z,24.22
2022-08-30T14:11:19.818Z,24.21
2022-08-30T14:16:39.586Z,24.33
2022-08-30T14:19:07.406Z,24.36
2022-08-30T14:21:35.656Z,24.19
2022-08-30T14:24:04.714Z,24.19
2022-08-30T14:26:59.672Z,24.26
2022-08-30T14:29:29.715Z,24.27
2022-08-30T14:31:57.057Z,24.36
2022-08-30T14:34:27.213Z,24.44
2022-08-30T14:36:53.982Z,24.47
2022-08-30T14:39:21.355Z,24.47
2022-08-30T14:41:51.517Z,24.54
2022-08-30T14:44:20.610Z,24.46
2022-08-30T14:46:48.281Z,24.40
2022-08-30T14:49:16.568Z,24.36
2022-08-30T14:51:46.280Z,24.32
2022-08-30T14:54:13.174Z,24.31
2022-08-30T14:56:40.651Z,24.37
2022-08-30T14:59:07.862Z,24.33
2022-08-30T15:01:36.949Z,24.39
2022-08-30T15:04:06.275Z,24.41
2022-08-30T15:06:36.262Z,24.47
2022-08-30T15:09:05.061Z,24.49
2022-08-30T15:11:33.214Z,24.54
2022-08-30T15:14:00.470Z,24.43
2022-08-30T15:16:31.668Z,24.50
2022-08-30T15:18:59.642Z,24.42
2022-08-30T15:21:30.568Z,24.40
2022-08-30T15:23:57.874Z,24.51
2022-08-30T15:26:25.224Z,24.53
2022-08-30T15:28:53.060Z,24.48
2022-08-30T15:31:21.560Z,24.51
2022-08-30T15:33:49.856Z,24.58
2022-08-30T15:36:16.728Z,24.60
2022-08-30T15:38:43.660Z,24.48
2022-08-30T15:41:12.757Z,24.44
2022-08-30T15:43:41.121Z,24.51
2022-08-30T15:46:14.976Z,24.52
2022-08-30T15:48:45.436Z,24.60
2022-08-30T15:51:13.517Z,24.45
2022-08-30T15:53:40.899Z,24.30
2022-08-30T15:56:07.618Z,24.22
2022-08-30T15:58:35.189Z,24.27
2022-08-30T16:01:04.794Z,24.42
2022-08-30T16:03:33.775Z,24.44
2022-08-30T16:06:01.126Z,24.43
2022-08-30T16:08:29.437Z,24.49
2022-08-30T16:10:56.461Z,24.57
2022-08-30T16:13:23.153Z,24.63
2022-08-30T16:15:50.053Z,24.63
2022-08-30T16:18:17.018Z,24.62
2022-08-30T16:20:44.032Z,24.67
2022-08-30T16:23:11.194Z,24.71
2022-08-30T16:25:40.090Z,24.72
2022-08-30T16:28:09.417Z,24.72
2022-08-30T16:30:36.699Z,24.76
2022-08-30T16:33:03.809Z,24.81
2022-08-30T16:35:30.445Z,24.78
2022-08-30T16:37:57.643Z,24.79
2022-08-30T16:40:24.618Z,24.80
2022-08-30T16:42:51.791Z,24.83
2022-08-30T16:45:19.261Z,24.69
2022-08-30T16:47:45.998Z,24.55
2022-08-30T16:50:16.567Z,24.49
2022-08-30T16:52:44.759Z,24.43
2022-08-30T16:55:11.536Z,24.40
2022-08-30T16:57:39.836Z,24.44
2022-08-30T17:00:13.031Z,24.55
2022-08-30T17:02:42.657Z,24.61
2022-08-30T17:05:21.305Z,24.65
2022-08-30T17:07:47.985Z,24.62
2022-08-30T17:10:15.100Z,24.54
2022-08-30T17:12:49.923Z,24.54
2022-08-30T17:15:16.743Z,24.47
2022-08-30T17:17:43.518Z,24.36
2022-08-30T17:20:11.103Z,24.40
2022-08-30T17:22:38.209Z,24.34
2022-08-30T17:25:05.432Z,24.34
2022-08-30T17:27:32.219Z,24.19
2022-08-30T17:29:59.115Z,23.99
2022-08-30T17:32:26.625Z,23.88
2022-08-30T17:34:53.863Z,24.01
2022-08-30T17:37:20.796Z,23.95
2022-08-30T17:39:48.267Z,23.88
2022-08-30T17:42:16.170Z,23.93
2022-08-30T17:44:42.971Z,23.95
2022-08-30T17:47:10.696Z,23.92
2022-08-30T17:49:37.804Z,23.79
2022-08-30T17:52:05.021Z,23.66
2022-08-30T17:54:34.381Z,23.62
2022-08-30T17:57:06.364Z,23.62
2022-08-30T17:59:37.054Z,23.71
2022-08-30T18:02:05.083Z,23.66
2022-08-30T18:04:32.074Z,23.62
2022-08-30T18:06:58.824Z,23.51
2022-08-30T18:09:28.528Z,23.59
2022-08-30T18:11:59.230Z,23.66
2022-08-30T18:14:27.074Z,23.60
2022-08-30T18:16:54.664Z,23.57
2022-08-30T18:19:23.841Z,23.39
2022-08-30T18:21:51.295Z,23.25
2022-08-30T18:24:18.027Z,23.13
2022-08-30T18:26:44.962Z,23.28
2022-08-30T18:29:11.612Z,23.37
2022-08-30T18:31:38.661Z,23.33
2022-08-30T18:34:06.930Z,23.30
2022-08-30T18:36:39.413Z,23.23
2022-08-30T18:39:06.763Z,23.22
2022-08-30T18:41:33.637Z,23.23
2022-08-30T18:44:23.875Z,23.23
2022-08-30T18:46:53.705Z,23.03
2022-08-30T18:49:25.209Z,23.04
2022-08-30T18:51:52.055Z,23.12
2022-08-30T18:54:19.057Z,23.21
2022-08-30T18:56:46.070Z,23.08
2022-08-30T18:59:13.137Z,22.94
2022-08-30T19:01:41.057Z,23.05
2022-08-30T19:04:08.040Z,22.98
2022-08-30T19:06:34.897Z,22.81
2022-08-30T19:09:08.980Z,22.65
2022-08-30T19:11:38.298Z,22.76
2022-08-30T19:14:06.992Z,22.85
2022-08-30T19:16:34.706Z,22.77
2022-08-30T19:19:02.917Z,22.68
2022-08-30T19:21:29.774Z,22.68
2022-08-30T19:23:56.426Z,22.78
2022-08-30T19:26:23.254Z,22.75
2022-08-30T19:28:54.321Z,22.56
2022-08-30T19:31:21.150Z,22.42
2022-08-30T19:33:48.148Z,22.53
2022-08-30T19:36:14.770Z,22.53
2022-08-30T19:38:44.291Z,22.37
2022-08-30T19:41:11.477Z,22.38
2022-08-30T19:43:38.588Z,22.48
2022-08-30T19:46:05.535Z,22.55
2022-08-30T19:48:34.255Z,22.52
2022-08-30T19:51:08.381Z,22.56
2022-08-30T19:53:35.652Z,22.53
2022-08-30T19:56:02.815Z,22.48
2022-08-30T19:58:30.145Z,22.54
2022-08-30T20:01:10.666Z,22.32
2022-08-30T20:03:40.193Z,22.32
2022-08-30T20:06:07.742Z,22.34
2022-08-30T20:08:36.560Z,22.43
2022-08-30T20:11:04.856Z,22.30
2022-08-30T20:16:18.707Z,22.27
2022-08-30T20:18:45.674Z,22.25
2022-08-30T20:21:14.439Z,22.08
2022-08-30T20:23:42.393Z,21.98
2022-08-30T20:26:11.117Z,21.93
2022-08-30T20:28:38.097Z,21.91
2022-08-30T20:31:06.515Z,21.86
2022-08-30T20:33:36.415Z,22.00
2022-08-30T20:36:04.797Z,22.00
2022-08-30T20:38:32.021Z,21.95
2022-08-30T20:41:00.954Z,21.97
2022-08-30T20:43:29.787Z,21.95
2022-08-30T20:45:57.073Z,21.77
2022-08-30T20:48:28.592Z,21.60
2022-08-30T20:50:55.344Z,21.65
2022-08-30T20:53:22.132Z,21.56
2022-08-30T20:55:49.132Z,21.44
2022-08-30T20:58:15.943Z,21.33
2022-08-30T21:00:45.595Z,21.45
2022-08-30T21:03:27.765Z,21.55
2022-08-30T21:05:56.121Z,21.54
2022-08-30T21:08:22.851Z,21.51
2022-08-30T21:10:49.835Z,21.66
2022-08-30T21:13:17.149Z,21.70
2022-08-30T21:15:45.950Z,21.67
2022-08-30T21:18:14.207Z,21.70
2022-08-30T21:20:41.797Z,21.58
2022-08-30T21:23:08.657Z,21.67
2022-08-30T21:25:38.624Z,21.54
2022-08-30T21:28:05.851Z,21.66
2022-08-30T21:30:32.865Z,21.62
2022-08-30T21:33:01.394Z,21.60
2022-08-30T21:35:47.559Z,21.61
2022-08-30T21:38:15.111Z,21.50
2022-08-30T21:40:42.356Z,21.43
2022-08-30T21:43:10.724Z,21.51
2022-08-30T21:45:38.592Z,21.31
2022-08-30T21:48:05.478Z,21.42
2022-08-30T21:50:32.668Z,21.49
2022-08-30T21:53:00.035Z,21.44
2022-08-30T21:55:26.999Z,21.33
2022-08-30T21:57:56.752Z,21.14
2022-08-30T22:00:23.867Z,21.10
2022-08-30T22:02:53.091Z,21.26
2022-08-30T22:05:20.504Z,21.28
2022-08-30T22:07:47.216Z,21.24
2022-08-30T22:10:13.874Z,21.22
2022-08-30T22:12:41.543Z,21.31
2022-08-30T22:15:08.996Z,21.31
2022-08-30T22:17:36.078Z,21.31
2022-08-30T22:20:05.445Z,21.24
2022-08-30T22:22:32.854Z,20.97
2022-08-30T22:24:59.777Z,21.17
2022-08-30T22:27:26.637Z,20.99
2022-08-30T22:29:53.316Z,21.17
2022-08-30T22:32:21.048Z,21.28
2022-08-30T22:34:47.906Z,21.07
2022-08-30T22:37:14.726Z,20.95
2022-08-30T22:39:41.748Z,20.96
2022-08-30T22:42:09.789Z,20.81
2022-08-30T22:44:36.546Z,20.84
2022-08-30T22:47:03.299Z,20.92
2022-08-30T22:49:30.048Z,20.92
2022-08-30T22:51:56.736Z,20.99
2022-08-30T22:54:23.446Z,21.06
2022-08-30T22:56:50.186Z,21.10
2022-08-30T22:59:16.826Z,21.07
2022-08-30T23:01:43.892Z,21.17
2022-08-30T23:04:11.907Z,21.04
2022-08-30T23:06:39.251Z,21.13
2022-08-30T23:09:07.314Z,21.18
2022-08-30T23:11:34.713Z,21.16
2022-08-30T23:14:02.378Z,21.14
2022-08-30T23:16:29.505Z,21.12
2022-08-30T23:18:56.209Z,21.01
2022-08-30T23:21:29.457Z,21.03
2022-08-30T23:24:16.732Z,20.96
2022-08-30T23:27:03.697Z,20.90
2022-08-30T23:29:49.325Z,21.02
2022-08-30T23:32:34.691Z,20.87
2022-08-30T23:35:20.261Z,20.91
2022-08-30T23:38:10.921Z,20.77
2022-08-30T23:40:56.204Z,20.78
2022-08-30T23:43:41.858Z,20.79
2022-08-30T23:46:26.897Z,20.76
2022-08-30T23:49:12.187Z,20.79
2022-08-30T23:51:57.676Z,20.74
2022-08-30T23:54:43.710Z,20.85
2022-08-30T23:57:29.115Z,20.92
